APG307 RPVI-RPLL
Flight info
| Callsign | APG307 |
|---|---|
| Flight time | 0h 49m |
| Altitude | 30000 |
| Route | LAMBO1S LAMBO B472 IBAGO IBAGO3R |
| Aircraft | A320/M-SDE3FGHIRWY/LB1 |
Departure
| Time | 2026-05-05 16:22 |
|---|---|
| Airport | Iloilo International Airport (RPVI) |
Arrival
| Time | 2026-05-05 17:11 |
|---|---|
| Airport | Ninoy Aquino International Airport (RPLL) |
| Time | Latitude | Longitude | Altitude | Speed | Heading |
|---|---|---|---|---|---|
| 2026-05-05 16:04 | 10.83114 | 122.49648 | 140 ft | 0 kts | 110° |
| 2026-05-05 16:14 | 10.83128 | 122.49611 | 140 ft | 3 kts | 110° |
| 2026-05-05 16:15 | 10.83141 | 122.49572 | 140 ft | 3 kts | 71° |
| 2026-05-05 16:15 | 10.83111 | 122.49554 | 140 ft | 2 kts | 23° |
| 2026-05-05 16:16 | 10.83132 | 122.49563 | 140 ft | 0 kts | 22° |
| 2026-05-05 16:18 | 10.83205 | 122.49592 | 140 ft | 16 kts | 20° |
| 2026-05-05 16:18 | 10.83317 | 122.49633 | 140 ft | 18 kts | 19° |
| 2026-05-05 16:18 | 10.83504 | 122.49634 | 140 ft | 14 kts | 291° |
| 2026-05-05 16:19 | 10.83537 | 122.49543 | 140 ft | 14 kts | 290° |
| 2026-05-05 16:19 | 10.83573 | 122.49459 | 141 ft | 12 kts | 313° |
| 2026-05-05 16:19 | 10.83756 | 122.49501 | 140 ft | 16 kts | 21° |
| 2026-05-05 16:20 | 10.84053 | 122.49612 | 138 ft | 27 kts | 20° |
| 2026-05-05 16:20 | 10.84332 | 122.49698 | 140 ft | 12 kts | 22° |
| 2026-05-05 16:21 | 10.84281 | 122.49697 | 141 ft | 4 kts | 205° |
| 2026-05-05 16:22 | 10.83322 | 122.49341 | 141 ft | 140 kts | 200° |
| 2026-05-05 16:22 | 10.81133 | 122.48525 | 976 ft | 174 kts | 200° |
| 2026-05-05 16:23 | 10.78981 | 122.47281 | 1886 ft | 201 kts | 245° |
| 2026-05-05 16:23 | 10.78830 | 122.45852 | 2159 ft | 215 kts | 291° |
| 2026-05-05 16:23 | 10.81223 | 122.44054 | 3122 ft | 231 kts | 348° |
| 2026-05-05 16:24 | 10.82805 | 122.43679 | 3855 ft | 235 kts | 351° |
| 2026-05-05 16:24 | 10.84421 | 122.43344 | 4648 ft | 239 kts | 350° |
| 2026-05-05 16:24 | 10.87720 | 122.42613 | 6137 ft | 246 kts | 349° |
| 2026-05-05 16:25 | 10.89401 | 122.42206 | 6875 ft | 250 kts | 348° |
| 2026-05-05 16:25 | 10.92817 | 122.41331 | 8349 ft | 257 kts | 347° |
| 2026-05-05 16:25 | 10.94559 | 122.40874 | 9081 ft | 260 kts | 347° |
| 2026-05-05 16:26 | 10.98085 | 122.39937 | 10453 ft | 267 kts | 347° |
| 2026-05-05 16:26 | 11.01716 | 122.38967 | 11764 ft | 273 kts | 347° |
| 2026-05-05 16:27 | 11.03561 | 122.38477 | 12428 ft | 276 kts | 347° |
| 2026-05-05 16:27 | 11.05426 | 122.37982 | 13094 ft | 278 kts | 347° |
| 2026-05-05 16:27 | 11.07313 | 122.37480 | 13738 ft | 281 kts | 347° |
| 2026-05-05 16:27 | 11.09219 | 122.36972 | 14298 ft | 284 kts | 347° |
| 2026-05-05 16:28 | 11.11142 | 122.36457 | 14873 ft | 286 kts | 347° |
| 2026-05-05 16:28 | 11.13076 | 122.35936 | 15418 ft | 289 kts | 347° |
| 2026-05-05 16:28 | 11.15032 | 122.35410 | 15973 ft | 292 kts | 347° |
| 2026-05-05 16:28 | 11.16985 | 122.34773 | 16447 ft | 301 kts | 340° |
| 2026-05-05 16:29 | 11.18956 | 122.33937 | 16559 ft | 321 kts | 339° |
| 2026-05-05 16:29 | 11.21071 | 122.33023 | 16696 ft | 340 kts | 338° |
| 2026-05-05 16:29 | 11.23306 | 122.32048 | 16812 ft | 358 kts | 338° |
| 2026-05-05 16:29 | 11.25649 | 122.31026 | 16957 ft | 374 kts | 338° |
| 2026-05-05 16:30 | 11.28066 | 122.29971 | 17350 ft | 381 kts | 338° |
| 2026-05-05 16:30 | 11.30517 | 122.28907 | 17845 ft | 385 kts | 338° |
| 2026-05-05 16:30 | 11.32988 | 122.27836 | 18343 ft | 388 kts | 338° |
| 2026-05-05 16:30 | 11.35481 | 122.26755 | 18779 ft | 391 kts | 338° |
| 2026-05-05 16:31 | 11.37994 | 122.25665 | 19228 ft | 394 kts | 338° |
| 2026-05-05 16:31 | 11.40526 | 122.24570 | 19676 ft | 397 kts | 338° |
| 2026-05-05 16:31 | 11.43079 | 122.23465 | 20129 ft | 400 kts | 338° |
| 2026-05-05 16:31 | 11.45653 | 122.22350 | 20580 ft | 404 kts | 338° |
| 2026-05-05 16:32 | 11.48250 | 122.21223 | 21032 ft | 407 kts | 338° |
| 2026-05-05 16:32 | 11.50861 | 122.20086 | 21475 ft | 410 kts | 338° |
| 2026-05-05 16:32 | 11.53498 | 122.18938 | 21906 ft | 413 kts | 338° |
| 2026-05-05 16:32 | 11.56149 | 122.17788 | 22354 ft | 416 kts | 338° |
| 2026-05-05 16:33 | 11.58828 | 122.16629 | 22793 ft | 419 kts | 338° |
| 2026-05-05 16:33 | 11.61520 | 122.15462 | 23225 ft | 422 kts | 338° |
| 2026-05-05 16:33 | 11.64233 | 122.14284 | 23624 ft | 425 kts | 338° |
| 2026-05-05 16:33 | 11.66931 | 122.13114 | 23959 ft | 428 kts | 338° |
| 2026-05-05 16:34 | 11.69709 | 122.11908 | 24295 ft | 430 kts | 338° |
| 2026-05-05 16:34 | 11.72434 | 122.10724 | 24633 ft | 432 kts | 338° |
| 2026-05-05 16:34 | 11.75207 | 122.09518 | 24988 ft | 434 kts | 338° |
| 2026-05-05 16:34 | 11.77989 | 122.08307 | 25336 ft | 436 kts | 338° |
| 2026-05-05 16:35 | 11.80785 | 122.07088 | 25684 ft | 438 kts | 338° |
| 2026-05-05 16:35 | 11.83592 | 122.05860 | 26019 ft | 440 kts | 337° |
| 2026-05-05 16:35 | 11.86414 | 122.04627 | 26342 ft | 442 kts | 337° |
| 2026-05-05 16:35 | 11.89246 | 122.03393 | 26666 ft | 444 kts | 338° |
| 2026-05-05 16:36 | 11.92092 | 122.02154 | 26978 ft | 446 kts | 337° |
| 2026-05-05 16:36 | 11.94952 | 122.00905 | 27280 ft | 448 kts | 337° |
| 2026-05-05 16:36 | 11.97825 | 121.99650 | 27581 ft | 450 kts | 337° |
| 2026-05-05 16:36 | 12.00712 | 121.98391 | 27879 ft | 452 kts | 337° |
| 2026-05-05 16:37 | 12.02628 | 121.97557 | 28080 ft | 453 kts | 337° |
| 2026-05-05 16:37 | 12.06524 | 121.95869 | 28472 ft | 456 kts | 337° |
| 2026-05-05 16:37 | 12.09447 | 121.94600 | 28763 ft | 458 kts | 337° |
| 2026-05-05 16:37 | 12.11389 | 121.93755 | 28959 ft | 459 kts | 337° |
| 2026-05-05 16:38 | 12.15325 | 121.92036 | 29329 ft | 461 kts | 337° |
| 2026-05-05 16:38 | 12.17280 | 121.91181 | 29509 ft | 463 kts | 336° |
| 2026-05-05 16:38 | 12.20247 | 121.89885 | 29773 ft | 464 kts | 337° |
| 2026-05-05 16:38 | 12.23216 | 121.88588 | 29893 ft | 462 kts | 336° |
| 2026-05-05 16:39 | 12.27039 | 121.86917 | 29909 ft | 441 kts | 336° |
| 2026-05-05 16:39 | 12.28934 | 121.86087 | 29910 ft | 437 kts | 336° |
| 2026-05-05 16:39 | 12.34489 | 121.83656 | 29910 ft | 433 kts | 336° |
| 2026-05-05 16:40 | 12.39986 | 121.81249 | 29907 ft | 433 kts | 336° |
| 2026-05-05 16:40 | 12.45523 | 121.78829 | 29911 ft | 433 kts | 336° |
| 2026-05-05 16:41 | 12.51064 | 121.76411 | 29911 ft | 433 kts | 336° |
| 2026-05-05 16:41 | 12.56597 | 121.73988 | 29912 ft | 433 kts | 336° |
| 2026-05-05 16:42 | 12.62133 | 121.71565 | 29917 ft | 432 kts | 336° |
| 2026-05-05 16:42 | 12.67665 | 121.69136 | 29921 ft | 432 kts | 336° |
| 2026-05-05 16:43 | 12.70423 | 121.67927 | 29758 ft | 428 kts | 336° |
| 2026-05-05 16:43 | 12.73139 | 121.66740 | 29491 ft | 421 kts | 337° |
| 2026-05-05 16:43 | 12.75819 | 121.65568 | 29234 ft | 417 kts | 336° |
| 2026-05-05 16:43 | 12.78476 | 121.64402 | 28981 ft | 415 kts | 336° |
| 2026-05-05 16:44 | 12.81086 | 121.63255 | 28724 ft | 413 kts | 336° |
| 2026-05-05 16:44 | 12.83719 | 121.62098 | 28469 ft | 411 kts | 336° |
| 2026-05-05 16:44 | 12.86342 | 121.60946 | 28218 ft | 409 kts | 336° |
| 2026-05-05 16:44 | 12.88947 | 121.59803 | 27968 ft | 407 kts | 337° |
| 2026-05-05 16:45 | 12.91548 | 121.58661 | 27720 ft | 405 kts | 337° |
| 2026-05-05 16:45 | 12.94133 | 121.57525 | 27480 ft | 402 kts | 337° |
| 2026-05-05 16:45 | 12.96693 | 121.56397 | 27082 ft | 399 kts | 336° |
| 2026-05-05 16:45 | 12.99236 | 121.55275 | 26636 ft | 397 kts | 337° |
| 2026-05-05 16:46 | 13.01763 | 121.54159 | 26181 ft | 395 kts | 337° |
| 2026-05-05 16:46 | 13.04283 | 121.53046 | 25723 ft | 393 kts | 337° |
| 2026-05-05 16:46 | 13.06795 | 121.51943 | 25247 ft | 393 kts | 337° |
| 2026-05-05 16:46 | 13.09308 | 121.50843 | 24774 ft | 392 kts | 337° |
| 2026-05-05 16:47 | 13.11813 | 121.49743 | 24280 ft | 392 kts | 337° |
| 2026-05-05 16:47 | 13.14321 | 121.48638 | 23783 ft | 392 kts | 337° |
| 2026-05-05 16:47 | 13.16830 | 121.47529 | 23239 ft | 393 kts | 337° |
| 2026-05-05 16:47 | 13.19340 | 121.46421 | 22717 ft | 392 kts | 337° |
| 2026-05-05 16:48 | 13.21804 | 121.45334 | 22228 ft | 390 kts | 337° |
| 2026-05-05 16:48 | 13.24290 | 121.44237 | 21740 ft | 388 kts | 337° |
| 2026-05-05 16:48 | 13.26769 | 121.43145 | 21253 ft | 387 kts | 337° |
| 2026-05-05 16:48 | 13.29236 | 121.42060 | 20778 ft | 386 kts | 337° |
| 2026-05-05 16:49 | 13.31703 | 121.40975 | 20297 ft | 384 kts | 337° |
| 2026-05-05 16:49 | 13.34151 | 121.39898 | 19822 ft | 383 kts | 338° |
| 2026-05-05 16:49 | 13.36603 | 121.38816 | 19352 ft | 383 kts | 337° |
| 2026-05-05 16:49 | 13.39046 | 121.37736 | 18957 ft | 380 kts | 337° |
| 2026-05-05 16:50 | 13.41472 | 121.36664 | 18512 ft | 379 kts | 338° |
| 2026-05-05 16:50 | 13.43872 | 121.35604 | 18113 ft | 372 kts | 338° |
| 2026-05-05 16:50 | 13.46231 | 121.34561 | 17440 ft | 364 kts | 338° |
| 2026-05-05 16:50 | 13.48513 | 121.33549 | 17016 ft | 351 kts | 338° |
| 2026-05-05 16:51 | 13.50713 | 121.32573 | 16606 ft | 338 kts | 338° |
| 2026-05-05 16:51 | 13.52832 | 121.31617 | 16206 ft | 327 kts | 334° |
| 2026-05-05 16:51 | 13.54730 | 121.30348 | 15948 ft | 330 kts | 320° |
| 2026-05-05 16:51 | 13.56354 | 121.28659 | 15912 ft | 335 kts | 311° |
| 2026-05-05 16:52 | 13.57879 | 121.26871 | 15923 ft | 338 kts | 312° |
| 2026-05-05 16:52 | 13.59430 | 121.25061 | 15815 ft | 337 kts | 312° |
| 2026-05-05 16:52 | 13.60983 | 121.23253 | 15391 ft | 338 kts | 312° |
| 2026-05-05 16:52 | 13.62535 | 121.21448 | 15037 ft | 337 kts | 312° |
| 2026-05-05 16:53 | 13.64082 | 121.19650 | 14704 ft | 335 kts | 312° |
| 2026-05-05 16:53 | 13.65619 | 121.17856 | 14375 ft | 333 kts | 312° |
| 2026-05-05 16:53 | 13.67140 | 121.16075 | 14055 ft | 331 kts | 312° |
| 2026-05-05 16:53 | 13.68657 | 121.14299 | 13713 ft | 330 kts | 312° |
| 2026-05-05 16:54 | 13.70160 | 121.12538 | 13424 ft | 326 kts | 312° |
| 2026-05-05 16:54 | 13.71645 | 121.10795 | 13182 ft | 323 kts | 312° |
| 2026-05-05 16:54 | 13.73129 | 121.09056 | 12950 ft | 322 kts | 312° |
| 2026-05-05 16:54 | 13.74587 | 121.07351 | 12723 ft | 321 kts | 312° |
| 2026-05-05 16:55 | 13.76061 | 121.05628 | 12553 ft | 321 kts | 312° |
| 2026-05-05 16:55 | 13.77532 | 121.03904 | 12339 ft | 319 kts | 312° |
| 2026-05-05 16:55 | 13.78999 | 121.02186 | 12110 ft | 318 kts | 312° |
| 2026-05-05 16:55 | 13.80468 | 121.00488 | 11873 ft | 317 kts | 316° |
| 2026-05-05 16:56 | 13.82189 | 120.99097 | 11651 ft | 313 kts | 332° |
| 2026-05-05 16:56 | 13.84180 | 120.98229 | 11430 ft | 309 kts | 347° |
| 2026-05-05 16:56 | 13.86260 | 120.97887 | 11202 ft | 306 kts | 357° |
| 2026-05-05 16:56 | 13.88375 | 120.97669 | 10983 ft | 305 kts | 356° |
| 2026-05-05 16:57 | 13.90482 | 120.97447 | 10756 ft | 304 kts | 356° |
| 2026-05-05 16:57 | 13.92582 | 120.97225 | 10539 ft | 303 kts | 356° |
| 2026-05-05 16:57 | 13.94674 | 120.97003 | 10321 ft | 302 kts | 357° |
| 2026-05-05 16:57 | 13.96760 | 120.96780 | 10099 ft | 300 kts | 356° |
| 2026-05-05 16:58 | 13.98830 | 120.96559 | 9883 ft | 299 kts | 357° |
| 2026-05-05 16:58 | 14.00900 | 120.96342 | 9657 ft | 298 kts | 357° |
| 2026-05-05 16:58 | 14.02955 | 120.96125 | 9427 ft | 296 kts | 357° |
| 2026-05-05 16:58 | 14.05000 | 120.95911 | 9219 ft | 295 kts | 357° |
| 2026-05-05 16:59 | 14.07044 | 120.95695 | 9002 ft | 294 kts | 357° |
| 2026-05-05 16:59 | 14.09074 | 120.95482 | 8790 ft | 292 kts | 357° |
| 2026-05-05 16:59 | 14.11096 | 120.95270 | 8577 ft | 292 kts | 357° |
| 2026-05-05 16:59 | 14.13100 | 120.95059 | 8380 ft | 286 kts | 357° |
| 2026-05-05 17:00 | 14.15011 | 120.94854 | 8255 ft | 274 kts | 356° |
| 2026-05-05 17:00 | 14.16897 | 120.94559 | 8058 ft | 268 kts | 346° |
| 2026-05-05 17:00 | 14.18593 | 120.93824 | 7950 ft | 271 kts | 333° |
| 2026-05-05 17:00 | 14.20225 | 120.92856 | 7750 ft | 270 kts | 333° |
| 2026-05-05 17:01 | 14.21851 | 120.91892 | 7524 ft | 269 kts | 333° |
| 2026-05-05 17:01 | 14.23473 | 120.90935 | 7298 ft | 268 kts | 333° |
| 2026-05-05 17:01 | 14.25074 | 120.89989 | 7127 ft | 261 kts | 333° |
| 2026-05-05 17:01 | 14.26559 | 120.88987 | 7019 ft | 251 kts | 320° |
| 2026-05-05 17:02 | 14.27652 | 120.87602 | 6886 ft | 251 kts | 300° |
| 2026-05-05 17:02 | 14.28251 | 120.85926 | 6661 ft | 249 kts | 286° |
| 2026-05-05 17:02 | 14.28701 | 120.84203 | 6431 ft | 249 kts | 287° |
| 2026-05-05 17:02 | 14.29154 | 120.82486 | 6211 ft | 248 kts | 287° |
| 2026-05-05 17:03 | 14.29609 | 120.80776 | 5976 ft | 247 kts | 286° |
| 2026-05-05 17:03 | 14.30065 | 120.79071 | 5751 ft | 246 kts | 286° |
| 2026-05-05 17:03 | 14.30514 | 120.77387 | 5537 ft | 241 kts | 286° |
| 2026-05-05 17:03 | 14.31191 | 120.75852 | 5320 ft | 233 kts | 311° |
| 2026-05-05 17:04 | 14.32412 | 120.74864 | 5119 ft | 222 kts | 340° |
| 2026-05-05 17:04 | 14.33880 | 120.74566 | 4919 ft | 212 kts | 6° |
| 2026-05-05 17:04 | 14.35284 | 120.74952 | 4601 ft | 208 kts | 32° |
| 2026-05-05 17:04 | 14.36360 | 120.75902 | 4299 ft | 203 kts | 57° |
| 2026-05-05 17:05 | 14.37074 | 120.77146 | 4017 ft | 201 kts | 62° |
| 2026-05-05 17:05 | 14.37769 | 120.78405 | 3729 ft | 202 kts | 62° |
| 2026-05-05 17:05 | 14.38468 | 120.79667 | 3429 ft | 203 kts | 62° |
| 2026-05-05 17:05 | 14.39173 | 120.80934 | 3150 ft | 203 kts | 62° |
| 2026-05-05 17:06 | 14.39875 | 120.82194 | 2891 ft | 201 kts | 62° |
| 2026-05-05 17:06 | 14.40559 | 120.83423 | 2719 ft | 195 kts | 62° |
| 2026-05-05 17:06 | 14.41221 | 120.84618 | 2549 ft | 190 kts | 62° |
| 2026-05-05 17:06 | 14.41874 | 120.85794 | 2387 ft | 188 kts | 62° |
| 2026-05-05 17:07 | 14.42497 | 120.86916 | 2240 ft | 174 kts | 61° |
| 2026-05-05 17:07 | 14.43083 | 120.87971 | 2059 ft | 165 kts | 61° |
| 2026-05-05 17:07 | 14.43635 | 120.88964 | 1927 ft | 152 kts | 61° |
| 2026-05-05 17:07 | 14.44135 | 120.89864 | 1902 ft | 143 kts | 62° |
| 2026-05-05 17:08 | 14.44620 | 120.90737 | 1831 ft | 139 kts | 62° |
| 2026-05-05 17:08 | 14.45098 | 120.91597 | 1772 ft | 137 kts | 63° |
| 2026-05-05 17:08 | 14.45572 | 120.92452 | 1722 ft | 137 kts | 62° |
| 2026-05-05 17:08 | 14.46048 | 120.93307 | 1554 ft | 136 kts | 62° |
| 2026-05-05 17:09 | 14.46519 | 120.94151 | 1357 ft | 137 kts | 62° |
| 2026-05-05 17:09 | 14.46993 | 120.95001 | 1188 ft | 136 kts | 62° |
| 2026-05-05 17:09 | 14.47469 | 120.95856 | 1007 ft | 138 kts | 62° |
| 2026-05-05 17:09 | 14.47951 | 120.96713 | 840 ft | 138 kts | 60° |
| 2026-05-05 17:10 | 14.48448 | 120.97578 | 655 ft | 140 kts | 59° |
| 2026-05-05 17:10 | 14.48932 | 120.98454 | 436 ft | 140 kts | 63° |
| 2026-05-05 17:10 | 14.49405 | 120.99337 | 264 ft | 141 kts | 63° |
| 2026-05-05 17:10 | 14.49893 | 121.00215 | 93 ft | 141 kts | 63° |
| 2026-05-05 17:11 | 14.50332 | 121.01015 | 71 ft | 111 kts | 61° |
| 2026-05-05 17:11 | 14.50627 | 121.01547 | 63 ft | 55 kts | 60° |
| 2026-05-05 17:11 | 14.50758 | 121.01714 | 62 ft | 19 kts | 41° |
| 2026-05-05 17:11 | 14.50855 | 121.01787 | 66 ft | 13 kts | 21° |
| 2026-05-05 17:12 | 14.50903 | 121.01773 | 68 ft | 7 kts | 308° |
| 2026-05-05 17:12 | 14.50901 | 121.01736 | 68 ft | 5 kts | 248° |
| 2026-05-05 17:12 | 14.50889 | 121.01708 | 65 ft | 4 kts | 246° |
| 2026-05-05 17:12 | 14.50884 | 121.01687 | 62 ft | 3 kts | 267° |
| 2026-05-05 17:13 | 14.50898 | 121.01663 | 63 ft | 5 kts | 314° |
| 2026-05-05 17:13 | 14.50916 | 121.01637 | 64 ft | 4 kts | 289° |
| 2026-05-05 17:13 | 14.50915 | 121.01615 | 68 ft | 3 kts | 255° |
| 2026-05-05 17:13 | 14.50907 | 121.01596 | 61 ft | 3 kts | 244° |
| 2026-05-05 17:14 | 14.50893 | 121.01570 | 66 ft | 7 kts | 240° |
| 2026-05-05 17:14 | 14.50869 | 121.01527 | 67 ft | 6 kts | 240° |
| 2026-05-05 17:14 | 14.50850 | 121.01491 | 60 ft | 5 kts | 240° |
| 2026-05-05 17:14 | 14.50833 | 121.01461 | 66 ft | 4 kts | 240° |
| 2026-05-05 17:15 | 14.50819 | 121.01436 | 66 ft | 4 kts | 239° |
| 2026-05-05 17:15 | 14.50815 | 121.01417 | 63 ft | 2 kts | 281° |
| 2026-05-05 17:15 | 14.50818 | 121.01405 | 68 ft | 1 kts | 282° |
| 2026-05-05 17:15 | 14.50823 | 121.01401 | 63 ft | 2 kts | 322° |
| 2026-05-05 17:16 | 14.50835 | 121.01396 | 64 ft | 1 kts | 337° |
| 2026-05-05 17:16 | 14.50865 | 121.01380 | 67 ft | 5 kts | 330° |
| 2026-05-05 17:16 | 14.50872 | 121.01376 | 63 ft | 0 kts | 330° |
| 2026-05-05 17:16 | 14.50879 | 121.01372 | 65 ft | 0 kts | 330° |
| 2026-05-05 17:17 | 14.50883 | 121.01369 | 65 ft | 0 kts | 330° |